Flevoborg — PBMH — position and weather

sailwx.info

Track history (hours):
 
Tides and Currents Weather Stations Pressure Air Temp Water Temp Dewpoint Dewpoint Depression Visibility Wind Speed Wind Dir Waves Ship Positions

Flevoborg

Last reported at 2018-Aug-13 16:53 UTC. Time now 2018-Aug-19 15:20 UTC.
Position N 58°43' W 003°29'.

Length 155 m; draft 8 m.

Type: Cargo ship. MMSI: 245226000.

Date/timePositionNaut miles runAvg speedWind from/ knotsBaromVisibWave heightAir tempDewpointWater temp
2018-Aug-13 16:53N 58°43' W 003°29'514.2
2018-Aug-13 16:30N 58°43' W 003°18'917.2
2018-Aug-13 16:00N 58°43' W 003°02'815.1
2018-Aug-13 15:30N 58°42' W 002°47'30510.5
2018-Aug-12 10:22N 57°49' E 006°44'410.9
2018-Aug-12 10:00N 57°48' E 006°52'510.9
2018-Aug-12 09:30N 57°48' E 007°02'510.6
2018-Aug-12 09:00N 57°47' E 007°12'510.6
2018-Aug-12 08:30N 57°47' E 007°22'510.2
2018-Aug-12 08:01N 57°47' E 007°31'510.6
2018-Aug-12 07:30N 57°46' E 007°41'510.6
2018-Aug-12 07:01N 57°46' E 007°51'510.5
2018-Aug-12 06:30N 57°46' E 008°01'510.3
2018-Aug-12 06:00N 57°46' E 008°11'67 8.9
2018-Aug-11 22:32N 57°49' E 010°15'2 9.1
2018-Aug-11 22:20N 57°49' E 010°19'4 9.3
2018-Aug-11 21:57N 57°49' E 010°26'410.0
2018-Aug-11 21:30N 57°49' E 010°34'5 9.2
2018-Aug-11 21:00N 57°49' E 010°43'4 7.7
2018-Aug-11 20:30N 57°46' E 010°47'510.1
2018-Aug-11 20:00N 57°42' E 010°41'2 4.9
2018-Aug-11 19:30N 57°41' E 010°38'0 0.1
2018-Aug-11 19:00N 57°41' E 010°38'0 0.0
2018-Aug-11 18:30N 57°41' E 010°38'0 0.0
2018-Aug-11 18:00N 57°41' E 010°38'0 0.0
2018-Aug-11 17:30N 57°41' E 010°38'0 0.0
2018-Aug-11 17:00N 57°41' E 010°38'0 0.0
2018-Aug-11 16:30N 57°41' E 010°38'0 0.0
2018-Aug-11 16:00N 57°41' E 010°38'0 0.0
2018-Aug-11 15:30N 57°41' E 010°38'0 0.0
2018-Aug-11 14:59N 57°41' E 010°38'0 0.0
2018-Aug-11 14:28N 57°41' E 010°38'0 0.0
2018-Aug-11 13:58N 57°41' E 010°38'0 0.0
2018-Aug-11 13:29N 57°41' E 010°38'0 0.0
2018-Aug-11 13:00N 57°41' E 010°38'0 0.0
2018-Aug-11 12:29N 57°41' E 010°38'0 0.0
2018-Aug-11 11:59N 57°41' E 010°38'0 0.0
2018-Aug-11 11:30N 57°41' E 010°38'0 0.7
2018-Aug-11 11:00N 57°41' E 010°37'4 7.2
2018-Aug-11 10:30N 57°40' E 010°43'510.1
2018-Aug-11 10:00N 57°39' E 010°53'510.6
2018-Aug-11 09:31N 57°39' E 011°02'510.1
2018-Aug-11 09:00N 57°36' E 011°10'510.7
2018-Aug-11 08:30N 57°32' E 011°18'510.7
2018-Aug-11 08:00N 57°28' E 011°25'510.8
2018-Aug-11 07:30N 57°23' E 011°28'510.8
2018-Aug-11 07:01N 57°18' E 011°32'510.5
2018-Aug-11 06:30N 57°13' E 011°35'510.1
2018-Aug-11 06:01N 57°09' E 011°38'5 9.9
2018-Aug-11 05:30N 57°04' E 011°41'510.0
2018-Aug-11 04:59N 56°59' E 011°45'106 8.9
2018-Aug-10 17:09N 55°16' E 011°05'210.3
2018-Aug-10 16:59N 55°14' E 011°06'5 9.7
2018-Aug-10 16:31N 55°10' E 011°03'510.4
2018-Aug-10 16:00N 55°05' E 011°03'510.5
2018-Aug-10 15:30N 54°59' E 011°01'5 9.8
2018-Aug-10 15:00N 54°56' E 010°56'5 9.5
2018-Aug-10 14:30N 54°51' E 010°53'5 9.5
2018-Aug-10 14:00N 54°47' E 010°53'5 9.5
2018-Aug-10 13:30N 54°42' E 010°54'5 9.2
2018-Aug-10 13:00N 54°40' E 011°01'5 9.2
2018-Aug-10 12:30N 54°37' E 011°08'5 9.3
2018-Aug-10 12:00N 54°35' E 011°15'5 9.1
2018-Aug-10 11:30N 54°33' E 011°22'5 9.0
2018-Aug-10 11:00N 54°31' E 011°29'5 9.4
2018-Aug-10 10:30N 54°29' E 011°36'4 9.0
2018-Aug-10 10:00N 54°27' E 011°43'4 8.3
2018-Aug-10 09:29N 54°26' E 011°50'4 8.1
2018-Aug-10 09:00N 54°26' E 011°57'4 8.2
2018-Aug-10 08:30N 54°26' E 012°04'78 8.6
2018-Aug-09 23:32N 55°04' E 014°02'5 9.4
2018-Aug-09 23:01N 55°07' E 014°08'0 9.9
2018-Aug-09 23:00N 55°07' E 014°08'5 9.7
2018-Aug-09 22:30N 55°11' E 014°13'510.3
2018-Aug-09 22:00N 55°15' E 014°19'510.4
2018-Aug-09 21:30N 55°19' E 014°24'510.4
2018-Aug-09 21:00N 55°23' E 014°30'510.6
2018-Aug-09 20:30N 55°27' E 014°36'510.7
2018-Aug-09 20:00N 55°30' E 014°44'510.7
2018-Aug-09 19:30N 55°32' E 014°53'510.5
2018-Aug-09 19:00N 55°35' E 015°01'510.7
2018-Aug-09 18:30N 55°37' E 015°09'510.4
2018-Aug-09 18:00N 55°39' E 015°17'510.3
2018-Aug-09 17:30N 55°42' E 015°26'510.4
2018-Aug-09 17:00N 55°44' E 015°34'510.6
2018-Aug-09 16:30N 55°47' E 015°42'510.8
2018-Aug-09 16:00N 55°49' E 015°51'510.6
2018-Aug-09 15:30N 55°52' E 015°58'510.6
2018-Aug-09 15:01N 55°55' E 016°06'510.7
2018-Aug-09 14:31N 55°58' E 016°15'510.7
2018-Aug-09 14:00N 56°01' E 016°23'510.6
2018-Aug-09 13:30N 56°03' E 016°31'510.5
2018-Aug-09 13:00N 56°06' E 016°39'510.4
2018-Aug-09 12:30N 56°10' E 016°46'510.5
2018-Aug-09 12:00N 56°14' E 016°49'510.5
2018-Aug-09 11:30N 56°19' E 016°52'510.4
2018-Aug-09 11:00N 56°24' E 016°56'3710.6
2018-Aug-09 07:32N 56°59' E 017°19'910.9
2018-Aug-09 06:43N 57°07' E 017°25'310.9
2018-Aug-09 06:25N 57°10' E 017°27'5710.3
2018-Aug-09 00:52N 58°07' E 017°37'710.3
2018-Aug-09 00:12N 58°14' E 017°37'210.5
2018-Aug-08 23:59N 58°16' E 017°36'510.5
2018-Aug-08 23:29N 58°21' E 017°36'510.6
2018-Aug-08 22:59N 58°27' E 017°35'510.6
2018-Aug-08 22:29N 58°32' E 017°35'5 9.9
2018-Aug-08 21:59N 58°36' E 017°30'4 8.6
2018-Aug-08 21:30N 58°39' E 017°24'510.0
2018-Aug-08 21:00N 58°41' E 017°15'3 6.7
2018-Aug-08 20:30N 58°40' E 017°09'0 0.5
2018-Aug-08 20:00N 58°40' E 017°08'0 0.0
2018-Aug-08 19:28N 58°40' E 017°08'0 0.0
2018-Aug-08 19:00N 58°40' E 017°08'0 0.0
2018-Aug-08 18:30N 58°40' E 017°08'0 0.0
2018-Aug-08 17:57N 58°40' E 017°08'0 0.0
2018-Aug-08 17:30N 58°40' E 017°08'0 0.0
2018-Aug-08 16:41N 58°40' E 017°08'0 0.0
2018-Aug-08 16:26N 58°40' E 017°08'0 0.0
2018-Aug-08 15:59N 58°40' E 017°08'0 0.0
2018-Aug-08 15:26N 58°40' E 017°08'0 0.0
2018-Aug-08 14:58N 58°40' E 017°08'0 0.0
2018-Aug-08 14:28N 58°40' E 017°08'0 0.0
2018-Aug-08 13:51N 58°40' E 017°08'0 0.0
2018-Aug-08 13:30N 58°40' E 017°08'0 0.0
2018-Aug-08 13:00N 58°40' E 017°08'0 0.0
2018-Aug-08 12:24N 58°40' E 017°08'0 0.0
2018-Aug-08 11:41N 58°40' E 017°08'0 0.0
2018-Aug-08 11:25N 58°40' E 017°08'0 0.0
2018-Aug-08 10:58N 58°40' E 017°08'0 0.0
2018-Aug-08 10:23N 58°40' E 017°08'0 0.0
2018-Aug-08 09:57N 58°40' E 017°08'0 0.0
2018-Aug-08 09:27N 58°40' E 017°08'0 0.0
2018-Aug-08 09:00N 58°40' E 017°08'0 0.0
2018-Aug-08 08:29N 58°40' E 017°08'0 0.0
2018-Aug-08 08:00N 58°40' E 017°08'0 0.0
2018-Aug-08 07:28N 58°40' E 017°08'0 0.0
2018-Aug-08 06:58N 58°40' E 017°08'0 0.0
2018-Aug-08 06:30N 58°40' E 017°08'0 0.0
2018-Aug-08 06:00N 58°40' E 017°08'0 0.0
2018-Aug-08 05:30N 58°40' E 017°08'0 0.0
2018-Aug-08 05:00N 58°40' E 017°08'0 0.0
2018-Aug-08 04:25N 58°40' E 017°08'0 0.0
2018-Aug-08 03:56N 58°40' E 017°08'0 0.0
2018-Aug-08 03:30N 58°40' E 017°08'0 0.0
2018-Aug-08 03:00N 58°40' E 017°08'0 0.0
2018-Aug-08 02:29N 58°40' E 017°08'0 0.0
2018-Aug-08 01:59N 58°40' E 017°08'0 0.0
2018-Aug-08 01:29N 58°40' E 017°08'0 0.0
2018-Aug-08 00:59N 58°40' E 017°08'0 0.0
2018-Aug-08 00:28N 58°40' E 017°08'0 0.0
2018-Aug-08 00:00N 58°40' E 017°08'0 0.0
2018-Aug-07 23:30N 58°40' E 017°08'0 0.0
2018-Aug-07 23:00N 58°40' E 017°08'0 0.0
2018-Aug-07 22:30N 58°40' E 017°08'0 0.0
2018-Aug-07 22:00N 58°40' E 017°08'0 0.0
2018-Aug-07 21:21N 58°40' E 017°08'0 0.0
2018-Aug-07 20:57N 58°40' E 017°08'0 0.0
2018-Aug-07 20:30N 58°40' E 017°08'0 0.0
2018-Aug-07 19:51N 58°40' E 017°08'0 0.0
2018-Aug-07 19:26N 58°40' E 017°08'0 0.0
2018-Aug-07 18:53N 58°40' E 017°08'0 0.0
2018-Aug-07 18:23N 58°40' E 017°08'0 0.0
2018-Aug-07 17:56N 58°40' E 017°08'0 0.0
2018-Aug-07 17:29N 58°40' E 017°08'0 0.0
2018-Aug-07 16:56N 58°40' E 017°08'0 0.0
2018-Aug-07 16:22N 58°40' E 017°08'0 0.0
2018-Aug-07 15:58N 58°40' E 017°08'0 0.0
2018-Aug-07 15:28N 58°40' E 017°08'0 0.0
2018-Aug-07 14:58N 58°40' E 017°08'0 0.0
2018-Aug-07 14:28N 58°40' E 017°08'0 0.0
2018-Aug-07 13:57N 58°40' E 017°08'0 0.0
2018-Aug-07 13:30N 58°40' E 017°08'0 0.0
2018-Aug-07 12:57N 58°40' E 017°08'0 0.0
2018-Aug-07 12:27N 58°40' E 017°08'0 0.0
2018-Aug-07 12:00N 58°40' E 017°08'0 0.0
2018-Aug-07 11:24N 58°40' E 017°08'0 0.0
2018-Aug-07 11:00N 58°40' E 017°08'0 0.0
2018-Aug-07 10:30N 58°40' E 017°08'0 0.0
2018-Aug-07 10:00N 58°40' E 017°08'0 0.0
2018-Aug-07 09:30N 58°40' E 017°08'0 0.0
2018-Aug-07 09:00N 58°40' E 017°08'0 0.0
2018-Aug-07 08:24N 58°40' E 017°08'0 0.0
2018-Aug-07 08:00N 58°40' E 017°08'0 0.0
2018-Aug-07 07:30N 58°40' E 017°08'0 0.0
2018-Aug-07 06:48N 58°40' E 017°08'0 0.0
2018-Aug-07 06:28N 58°40' E 017°08'0 0.0
2018-Aug-07 05:52N 58°40' E 017°08'0 0.0
2018-Aug-07 05:28N 58°40' E 017°08'0 0.0
2018-Aug-07 04:58N 58°40' E 017°08'0 0.0
2018-Aug-07 04:28N 58°40' E 017°08'0 0.0
2018-Aug-07 03:58N 58°40' E 017°08'0 0.0
2018-Aug-07 03:28N 58°40' E 017°08'0 0.0
2018-Aug-07 02:58N 58°40' E 017°08'0 0.0
2018-Aug-07 02:30N 58°40' E 017°08'0 0.0
2018-Aug-07 02:00N 58°40' E 017°08'0 0.0
2018-Aug-07 01:28N 58°40' E 017°08'0 0.0
2018-Aug-07 00:55N 58°40' E 017°08'0 0.0
2018-Aug-07 00:19N 58°40' E 017°08'0 0.0
2018-Aug-06 23:58N 58°40' E 017°08'0 0.0
2018-Aug-06 23:30N 58°40' E 017°08'0 0.0
2018-Aug-06 23:00N 58°40' E 017°08'0 0.0
2018-Aug-06 22:30N 58°40' E 017°08'0 0.0
2018-Aug-06 22:00N 58°40' E 017°08'0 0.0
2018-Aug-06 21:30N 58°40' E 017°08'0 0.0
2018-Aug-06 20:59N 58°40' E 017°08'0 0.0
2018-Aug-06 20:29N 58°40' E 017°08'0 0.0
2018-Aug-06 19:59N 58°40' E 017°08'0 0.0
2018-Aug-06 19:29N 58°40' E 017°08'0 0.0
2018-Aug-06 18:59N 58°40' E 017°08'0 0.0
2018-Aug-06 18:23N 58°40' E 017°08'0 0.0
2018-Aug-06 17:53N 58°40' E 017°08'0 0.0
2018-Aug-06 17:29N 58°40' E 017°08'0 0.0
2018-Aug-06 16:59N 58°40' E 017°08'0 0.0
2018-Aug-06 16:29N 58°40' E 017°08'0 0.0
2018-Aug-06 15:56N 58°40' E 017°08'0 0.0
2018-Aug-06 15:29N 58°40' E 017°08'0 0.0
2018-Aug-06 14:59N 58°40' E 017°08'0 0.0
2018-Aug-06 14:26N 58°40' E 017°08'0 0.0
2018-Aug-06 13:44N 58°40' E 017°08'0 0.0
2018-Aug-06 13:29N 58°40' E 017°08'0 0.0
2018-Aug-06 12:56N 58°40' E 017°08'0 0.0
2018-Aug-06 12:29N 58°40' E 017°08'0 0.0
2018-Aug-06 11:59N 58°40' E 017°08'0 0.0
2018-Aug-06 11:23N 58°40' E 017°08'0 0.0
2018-Aug-06 10:53N 58°40' E 017°08'0 0.0
2018-Aug-06 10:29N 58°40' E 017°08'0 0.0
2018-Aug-06 09:59N 58°40' E 017°08'0 0.0
2018-Aug-06 09:26N 58°40' E 017°08'0 0.0
2018-Aug-06 08:53N 58°40' E 017°08'0 0.0
2018-Aug-06 08:29N 58°40' E 017°08'0 0.0
2018-Aug-06 07:59N 58°40' E 017°08'0 0.0
2018-Aug-06 07:30N 58°40' E 017°08'0 0.0
2018-Aug-06 06:55N 58°40' E 017°08'0 0.0
2018-Aug-06 06:29N 58°40' E 017°08'0 0.0
2018-Aug-06 05:58N 58°40' E 017°08'0 0.0
2018-Aug-06 05:28N 58°40' E 017°08'0 0.0
2018-Aug-06 04:55N 58°40' E 017°08'0 0.0
2018-Aug-06 04:28N 58°40' E 017°08'0 0.0
2018-Aug-06 03:56N 58°40' E 017°08'0 0.0
2018-Aug-06 03:30N 58°40' E 017°08'0 0.0
2018-Aug-06 03:00N 58°40' E 017°08'0 0.0
2018-Aug-06 02:30N 58°40' E 017°08'0 0.0
2018-Aug-06 02:00N 58°40' E 017°08'0 0.0
2018-Aug-06 01:27N 58°40' E 017°08'0 0.0
2018-Aug-06 01:00N 58°40' E 017°08'0 0.0
2018-Aug-06 00:30N 58°40' E 017°08'0 0.0
2018-Aug-06 00:00N 58°40' E 017°08'0 0.0
2018-Aug-05 23:24N 58°40' E 017°08'0 0.0
2018-Aug-05 23:00N 58°40' E 017°08'0 0.0
2018-Aug-05 22:30N 58°40' E 017°08'0 0.0
2018-Aug-05 22:00N 58°40' E 017°08'0 0.0
2018-Aug-05 21:30N 58°40' E 017°08'0 0.0
2018-Aug-05 20:57N 58°40' E 017°08'0 0.0
2018-Aug-05 20:30N 58°40' E 017°08'0 0.0
2018-Aug-05 19:45N 58°40' E 017°08'0 0.0
2018-Aug-05 19:30N 58°40' E 017°08'0 0.0
2018-Aug-05 18:56N 58°40' E 017°08'0 0.0
2018-Aug-05 18:29N 58°40' E 017°08'0 0.0
2018-Aug-05 17:59N 58°40' E 017°08'0 0.0
2018-Aug-05 17:14N 58°40' E 017°08'0 0.0
2018-Aug-05 16:59N 58°40' E 017°08'0 0.0
2018-Aug-05 16:29N 58°40' E 017°08'0 0.0
2018-Aug-05 15:56N 58°40' E 017°08'0 0.0
2018-Aug-05 15:26N 58°40' E 017°08'0 0.0
2018-Aug-05 14:50N 58°40' E 017°08'0 0.0
2018-Aug-05 14:29N 58°40' E 017°08'0 0.0
2018-Aug-05 13:28N 58°40' E 017°08'0 0.0
2018-Aug-05 12:58N 58°40' E 017°08'0 0.0
2018-Aug-05 00:01N 58°40' E 017°08'0 0.0
2018-Aug-04 23:58N 58°40' E 017°08'0 0.0
2018-Aug-04 22:49N 58°40' E 017°08'0 0.0
2018-Aug-04 15:19N 58°40' E 017°08'1 3.0
2018-Aug-04 15:00N 58°41' E 017°10'4 8.5
2018-Aug-04 14:30N 58°40' E 017°18'510.4
2018-Aug-04 14:00N 58°37' E 017°27'5 9.8
2018-Aug-04 13:30N 58°34' E 017°34'100 8.6
2018-Aug-04 01:58N 59°55' E 019°27'511.0
2018-Aug-04 01:30N 59°59' E 019°20'611.1
2018-Aug-04 01:00N 60°03' E 019°13'611.2
2018-Aug-04 00:30N 60°08' E 019°06'510.6
2018-Aug-04 00:00N 60°12' E 019°01'611.0
2018-Aug-03 23:30N 60°18' E 019°00'510.9
2018-Aug-03 23:00N 60°23' E 018°60'  
Track history (hours):
 
Tides and Currents Weather Stations Pressure Air Temp Water Temp Dewpoint Dewpoint Depression Visibility Wind Speed Wind Dir Waves Ship Positions

Flevoborg

Last reported at 2018-Aug-13 16:53 UTC. Time now 2018-Aug-19 15:20 UTC.
Position N 58°43' W 003°29'.

Length 155 m; draft 8 m.

Type: Cargo ship. MMSI: 245226000.

Date/timePositionNaut miles runAvg speedWind from/ knotsBaromVisibWave heightAir tempDewpointWater temp
2018-Aug-13 16:53N 58°43' W 003°29'514.2
2018-Aug-13 16:30N 58°43' W 003°18'917.2
2018-Aug-13 16:00N 58°43' W 003°02'815.1
2018-Aug-13 15:30N 58°42' W 002°47'30510.5
2018-Aug-12 10:22N 57°49' E 006°44'410.9
2018-Aug-12 10:00N 57°48' E 006°52'510.9
2018-Aug-12 09:30N 57°48' E 007°02'510.6
2018-Aug-12 09:00N 57°47' E 007°12'510.6
2018-Aug-12 08:30N 57°47' E 007°22'510.2
2018-Aug-12 08:01N 57°47' E 007°31'510.6
2018-Aug-12 07:30N 57°46' E 007°41'510.6
2018-Aug-12 07:01N 57°46' E 007°51'510.5
2018-Aug-12 06:30N 57°46' E 008°01'510.3
2018-Aug-12 06:00N 57°46' E 008°11'67 8.9
2018-Aug-11 22:32N 57°49' E 010°15'2 9.1
2018-Aug-11 22:20N 57°49' E 010°19'4 9.3
2018-Aug-11 21:57N 57°49' E 010°26'410.0
2018-Aug-11 21:30N 57°49' E 010°34'5 9.2
2018-Aug-11 21:00N 57°49' E 010°43'4 7.7
2018-Aug-11 20:30N 57°46' E 010°47'510.1
2018-Aug-11 20:00N 57°42' E 010°41'2 4.9
2018-Aug-11 19:30N 57°41' E 010°38'0 0.1
2018-Aug-11 19:00N 57°41' E 010°38'0 0.0
2018-Aug-11 18:30N 57°41' E 010°38'0 0.0
2018-Aug-11 18:00N 57°41' E 010°38'0 0.0
2018-Aug-11 17:30N 57°41' E 010°38'0 0.0
2018-Aug-11 17:00N 57°41' E 010°38'0 0.0
2018-Aug-11 16:30N 57°41' E 010°38'0 0.0
2018-Aug-11 16:00N 57°41' E 010°38'0 0.0
2018-Aug-11 15:30N 57°41' E 010°38'0 0.0
2018-Aug-11 14:59N 57°41' E 010°38'0 0.0
2018-Aug-11 14:28N 57°41' E 010°38'0 0.0
2018-Aug-11 13:58N 57°41' E 010°38'0 0.0
2018-Aug-11 13:29N 57°41' E 010°38'0 0.0
2018-Aug-11 13:00N 57°41' E 010°38'0 0.0
2018-Aug-11 12:29N 57°41' E 010°38'0 0.0
2018-Aug-11 11:59N 57°41' E 010°38'0 0.0
2018-Aug-11 11:30N 57°41' E 010°38'0 0.7
2018-Aug-11 11:00N 57°41' E 010°37'4 7.2
2018-Aug-11 10:30N 57°40' E 010°43'510.1
2018-Aug-11 10:00N 57°39' E 010°53'510.6
2018-Aug-11 09:31N 57°39' E 011°02'510.1
2018-Aug-11 09:00N 57°36' E 011°10'510.7
2018-Aug-11 08:30N 57°32' E 011°18'510.7
2018-Aug-11 08:00N 57°28' E 011°25'510.8
2018-Aug-11 07:30N 57°23' E 011°28'510.8
2018-Aug-11 07:01N 57°18' E 011°32'510.5
2018-Aug-11 06:30N 57°13' E 011°35'510.1
2018-Aug-11 06:01N 57°09' E 011°38'5 9.9
2018-Aug-11 05:30N 57°04' E 011°41'510.0
2018-Aug-11 04:59N 56°59' E 011°45'106 8.9
2018-Aug-10 17:09N 55°16' E 011°05'210.3
2018-Aug-10 16:59N 55°14' E 011°06'5 9.7
2018-Aug-10 16:31N 55°10' E 011°03'510.4
2018-Aug-10 16:00N 55°05' E 011°03'510.5
2018-Aug-10 15:30N 54°59' E 011°01'5 9.8
2018-Aug-10 15:00N 54°56' E 010°56'5 9.5
2018-Aug-10 14:30N 54°51' E 010°53'5 9.5
2018-Aug-10 14:00N 54°47' E 010°53'5 9.5
2018-Aug-10 13:30N 54°42' E 010°54'5 9.2
2018-Aug-10 13:00N 54°40' E 011°01'5 9.2
2018-Aug-10 12:30N 54°37' E 011°08'5 9.3
2018-Aug-10 12:00N 54°35' E 011°15'5 9.1
2018-Aug-10 11:30N 54°33' E 011°22'5 9.0
2018-Aug-10 11:00N 54°31' E 011°29'5 9.4
2018-Aug-10 10:30N 54°29' E 011°36'4 9.0
2018-Aug-10 10:00N 54°27' E 011°43'4 8.3
2018-Aug-10 09:29N 54°26' E 011°50'4 8.1
2018-Aug-10 09:00N 54°26' E 011°57'4 8.2
2018-Aug-10 08:30N 54°26' E 012°04'78 8.6
2018-Aug-09 23:32N 55°04' E 014°02'5 9.4
2018-Aug-09 23:01N 55°07' E 014°08'0 9.9
2018-Aug-09 23:00N 55°07' E 014°08'5 9.7
2018-Aug-09 22:30N 55°11' E 014°13'510.3
2018-Aug-09 22:00N 55°15' E 014°19'510.4
2018-Aug-09 21:30N 55°19' E 014°24'510.4
2018-Aug-09 21:00N 55°23' E 014°30'510.6
2018-Aug-09 20:30N 55°27' E 014°36'510.7
2018-Aug-09 20:00N 55°30' E 014°44'510.7
2018-Aug-09 19:30N 55°32' E 014°53'510.5
2018-Aug-09 19:00N 55°35' E 015°01'510.7
2018-Aug-09 18:30N 55°37' E 015°09'510.4
2018-Aug-09 18:00N 55°39' E 015°17'510.3
2018-Aug-09 17:30N 55°42' E 015°26'510.4
2018-Aug-09 17:00N 55°44' E 015°34'510.6
2018-Aug-09 16:30N 55°47' E 015°42'510.8
2018-Aug-09 16:00N 55°49' E 015°51'510.6
2018-Aug-09 15:30N 55°52' E 015°58'510.6
2018-Aug-09 15:01N 55°55' E 016°06'510.7
2018-Aug-09 14:31N 55°58' E 016°15'510.7
2018-Aug-09 14:00N 56°01' E 016°23'510.6
2018-Aug-09 13:30N 56°03' E 016°31'510.5
2018-Aug-09 13:00N 56°06' E 016°39'510.4
2018-Aug-09 12:30N 56°10' E 016°46'510.5
2018-Aug-09 12:00N 56°14' E 016°49'510.5
2018-Aug-09 11:30N 56°19' E 016°52'510.4
2018-Aug-09 11:00N 56°24' E 016°56'3710.6
2018-Aug-09 07:32N 56°59' E 017°19'910.9
2018-Aug-09 06:43N 57°07' E 017°25'310.9
2018-Aug-09 06:25N 57°10' E 017°27'5710.3
2018-Aug-09 00:52N 58°07' E 017°37'710.3
2018-Aug-09 00:12N 58°14' E 017°37'210.5
2018-Aug-08 23:59N 58°16' E 017°36'510.5
2018-Aug-08 23:29N 58°21' E 017°36'510.6
2018-Aug-08 22:59N 58°27' E 017°35'510.6
2018-Aug-08 22:29N 58°32' E 017°35'5 9.9
2018-Aug-08 21:59N 58°36' E 017°30'4 8.6
2018-Aug-08 21:30N 58°39' E 017°24'510.0
2018-Aug-08 21:00N 58°41' E 017°15'3 6.7
2018-Aug-08 20:30N 58°40' E 017°09'0 0.5
2018-Aug-08 20:00N 58°40' E 017°08'0 0.0
2018-Aug-08 19:28N 58°40' E 017°08'0 0.0
2018-Aug-08 19:00N 58°40' E 017°08'0 0.0
2018-Aug-08 18:30N 58°40' E 017°08'0 0.0
2018-Aug-08 17:57N 58°40' E 017°08'0 0.0
2018-Aug-08 17:30N 58°40' E 017°08'0 0.0
2018-Aug-08 16:41N 58°40' E 017°08'0 0.0
2018-Aug-08 16:26N 58°40' E 017°08'0 0.0
2018-Aug-08 15:59N 58°40' E 017°08'0 0.0
2018-Aug-08 15:26N 58°40' E 017°08'0 0.0
2018-Aug-08 14:58N 58°40' E 017°08'0 0.0
2018-Aug-08 14:28N 58°40' E 017°08'0 0.0
2018-Aug-08 13:51N 58°40' E 017°08'0 0.0
2018-Aug-08 13:30N 58°40' E 017°08'0 0.0
2018-Aug-08 13:00N 58°40' E 017°08'0 0.0
2018-Aug-08 12:24N 58°40' E 017°08'0 0.0
2018-Aug-08 11:41N 58°40' E 017°08'0 0.0
2018-Aug-08 11:25N 58°40' E 017°08'0 0.0
2018-Aug-08 10:58N 58°40' E 017°08'0 0.0
2018-Aug-08 10:23N 58°40' E 017°08'0 0.0
2018-Aug-08 09:57N 58°40' E 017°08'0 0.0
2018-Aug-08 09:27N 58°40' E 017°08'0 0.0
2018-Aug-08 09:00N 58°40' E 017°08'0 0.0
2018-Aug-08 08:29N 58°40' E 017°08'0 0.0
2018-Aug-08 08:00N 58°40' E 017°08'0 0.0
2018-Aug-08 07:28N 58°40' E 017°08'0 0.0
2018-Aug-08 06:58N 58°40' E 017°08'0 0.0
2018-Aug-08 06:30N 58°40' E 017°08'0 0.0
2018-Aug-08 06:00N 58°40' E 017°08'0 0.0
2018-Aug-08 05:30N 58°40' E 017°08'0 0.0
2018-Aug-08 05:00N 58°40' E 017°08'0 0.0
2018-Aug-08 04:25N 58°40' E 017°08'0 0.0
2018-Aug-08 03:56N 58°40' E 017°08'0 0.0
2018-Aug-08 03:30N 58°40' E 017°08'0 0.0
2018-Aug-08 03:00N 58°40' E 017°08'0 0.0
2018-Aug-08 02:29N 58°40' E 017°08'0 0.0
2018-Aug-08 01:59N 58°40' E 017°08'0 0.0
2018-Aug-08 01:29N 58°40' E 017°08'0 0.0
2018-Aug-08 00:59N 58°40' E 017°08'0 0.0
2018-Aug-08 00:28N 58°40' E 017°08'0 0.0
2018-Aug-08 00:00N 58°40' E 017°08'0 0.0
2018-Aug-07 23:30N 58°40' E 017°08'0 0.0
2018-Aug-07 23:00N 58°40' E 017°08'0 0.0
2018-Aug-07 22:30N 58°40' E 017°08'0 0.0
2018-Aug-07 22:00N 58°40' E 017°08'0 0.0
2018-Aug-07 21:21N 58°40' E 017°08'0 0.0
2018-Aug-07 20:57N 58°40' E 017°08'0 0.0
2018-Aug-07 20:30N 58°40' E 017°08'0 0.0
2018-Aug-07 19:51N 58°40' E 017°08'0 0.0
2018-Aug-07 19:26N 58°40' E 017°08'0 0.0
2018-Aug-07 18:53N 58°40' E 017°08'0 0.0
2018-Aug-07 18:23N 58°40' E 017°08'0 0.0
2018-Aug-07 17:56N 58°40' E 017°08'0 0.0
2018-Aug-07 17:29N 58°40' E 017°08'0 0.0
2018-Aug-07 16:56N 58°40' E 017°08'0 0.0
2018-Aug-07 16:22N 58°40' E 017°08'0 0.0
2018-Aug-07 15:58N 58°40' E 017°08'0 0.0
2018-Aug-07 15:28N 58°40' E 017°08'0 0.0
2018-Aug-07 14:58N 58°40' E 017°08'0 0.0
2018-Aug-07 14:28N 58°40' E 017°08'0 0.0
2018-Aug-07 13:57N 58°40' E 017°08'0 0.0
2018-Aug-07 13:30N 58°40' E 017°08'0 0.0
2018-Aug-07 12:57N 58°40' E 017°08'0 0.0
2018-Aug-07 12:27N 58°40' E 017°08'0 0.0
2018-Aug-07 12:00N 58°40' E 017°08'0 0.0
2018-Aug-07 11:24N 58°40' E 017°08'0 0.0
2018-Aug-07 11:00N 58°40' E 017°08'0 0.0
2018-Aug-07 10:30N 58°40' E 017°08'0 0.0
2018-Aug-07 10:00N 58°40' E 017°08'0 0.0
2018-Aug-07 09:30N 58°40' E 017°08'0 0.0
2018-Aug-07 09:00N 58°40' E 017°08'0 0.0
2018-Aug-07 08:24N 58°40' E 017°08'0 0.0
2018-Aug-07 08:00N 58°40' E 017°08'0 0.0
2018-Aug-07 07:30N 58°40' E 017°08'0 0.0
2018-Aug-07 06:48N 58°40' E 017°08'0 0.0
2018-Aug-07 06:28N 58°40' E 017°08'0 0.0
2018-Aug-07 05:52N 58°40' E 017°08'0 0.0
2018-Aug-07 05:28N 58°40' E 017°08'0 0.0
2018-Aug-07 04:58N 58°40' E 017°08'0 0.0
2018-Aug-07 04:28N 58°40' E 017°08'0 0.0
2018-Aug-07 03:58N 58°40' E 017°08'0 0.0
2018-Aug-07 03:28N 58°40' E 017°08'0 0.0
2018-Aug-07 02:58N 58°40' E 017°08'0 0.0
2018-Aug-07 02:30N 58°40' E 017°08'0 0.0
2018-Aug-07 02:00N 58°40' E 017°08'0 0.0
2018-Aug-07 01:28N 58°40' E 017°08'0 0.0
2018-Aug-07 00:55N 58°40' E 017°08'0 0.0
2018-Aug-07 00:19N 58°40' E 017°08'0 0.0
2018-Aug-06 23:58N 58°40' E 017°08'0 0.0
2018-Aug-06 23:30N 58°40' E 017°08'0 0.0
2018-Aug-06 23:00N 58°40' E 017°08'0 0.0
2018-Aug-06 22:30N 58°40' E 017°08'0 0.0
2018-Aug-06 22:00N 58°40' E 017°08'0 0.0
2018-Aug-06 21:30N 58°40' E 017°08'0 0.0
2018-Aug-06 20:59N 58°40' E 017°08'0 0.0
2018-Aug-06 20:29N 58°40' E 017°08'0 0.0
2018-Aug-06 19:59N 58°40' E 017°08'0 0.0
2018-Aug-06 19:29N 58°40' E 017°08'0 0.0
2018-Aug-06 18:59N 58°40' E 017°08'0 0.0
2018-Aug-06 18:23N 58°40' E 017°08'0 0.0
2018-Aug-06 17:53N 58°40' E 017°08'0 0.0
2018-Aug-06 17:29N 58°40' E 017°08'0 0.0
2018-Aug-06 16:59N 58°40' E 017°08'0 0.0
2018-Aug-06 16:29N 58°40' E 017°08'0 0.0
2018-Aug-06 15:56N 58°40' E 017°08'0 0.0
2018-Aug-06 15:29N 58°40' E 017°08'0 0.0
2018-Aug-06 14:59N 58°40' E 017°08'0 0.0
2018-Aug-06 14:26N 58°40' E 017°08'0 0.0
2018-Aug-06 13:44N 58°40' E 017°08'0 0.0
2018-Aug-06 13:29N 58°40' E 017°08'0 0.0
2018-Aug-06 12:56N 58°40' E 017°08'0 0.0
2018-Aug-06 12:29N 58°40' E 017°08'0 0.0
2018-Aug-06 11:59N 58°40' E 017°08'0 0.0
2018-Aug-06 11:23N 58°40' E 017°08'0 0.0
2018-Aug-06 10:53N 58°40' E 017°08'0 0.0
2018-Aug-06 10:29N 58°40' E 017°08'0 0.0
2018-Aug-06 09:59N 58°40' E 017°08'0 0.0
2018-Aug-06 09:26N 58°40' E 017°08'0 0.0
2018-Aug-06 08:53N 58°40' E 017°08'0 0.0
2018-Aug-06 08:29N 58°40' E 017°08'0 0.0
2018-Aug-06 07:59N 58°40' E 017°08'0 0.0
2018-Aug-06 07:30N 58°40' E 017°08'0 0.0
2018-Aug-06 06:55N 58°40' E 017°08'0 0.0
2018-Aug-06 06:29N 58°40' E 017°08'0 0.0
2018-Aug-06 05:58N 58°40' E 017°08'0 0.0
2018-Aug-06 05:28N 58°40' E 017°08'0 0.0
2018-Aug-06 04:55N 58°40' E 017°08'0 0.0
2018-Aug-06 04:28N 58°40' E 017°08'0 0.0
2018-Aug-06 03:56N 58°40' E 017°08'0 0.0
2018-Aug-06 03:30N 58°40' E 017°08'0 0.0
2018-Aug-06 03:00N 58°40' E 017°08'0 0.0
2018-Aug-06 02:30N 58°40' E 017°08'0 0.0
2018-Aug-06 02:00N 58°40' E 017°08'0 0.0
2018-Aug-06 01:27N 58°40' E 017°08'0 0.0
2018-Aug-06 01:00N 58°40' E 017°08'0 0.0
2018-Aug-06 00:30N 58°40' E 017°08'0 0.0
2018-Aug-06 00:00N 58°40' E 017°08'0 0.0
2018-Aug-05 23:24N 58°40' E 017°08'0 0.0
2018-Aug-05 23:00N 58°40' E 017°08'0 0.0
2018-Aug-05 22:30N 58°40' E 017°08'0 0.0
2018-Aug-05 22:00N 58°40' E 017°08'0 0.0
2018-Aug-05 21:30N 58°40' E 017°08'0 0.0
2018-Aug-05 20:57N 58°40' E 017°08'0 0.0
2018-Aug-05 20:30N 58°40' E 017°08'0 0.0
2018-Aug-05 19:45N 58°40' E 017°08'0 0.0
2018-Aug-05 19:30N 58°40' E 017°08'0 0.0
2018-Aug-05 18:56N 58°40' E 017°08'0 0.0
2018-Aug-05 18:29N 58°40' E 017°08'0 0.0
2018-Aug-05 17:59N 58°40' E 017°08'0 0.0
2018-Aug-05 17:14N 58°40' E 017°08'0 0.0
2018-Aug-05 16:59N 58°40' E 017°08'0 0.0
2018-Aug-05 16:29N 58°40' E 017°08'0 0.0
2018-Aug-05 15:56N 58°40' E 017°08'0 0.0
2018-Aug-05 15:26N 58°40' E 017°08'0 0.0
2018-Aug-05 14:50N 58°40' E 017°08'0 0.0
2018-Aug-05 14:29N 58°40' E 017°08'0 0.0
2018-Aug-05 13:28N 58°40' E 017°08'0 0.0
2018-Aug-05 12:58N 58°40' E 017°08'0 0.0
2018-Aug-05 00:01N 58°40' E 017°08'0 0.0
2018-Aug-04 23:58N 58°40' E 017°08'0 0.0
2018-Aug-04 22:49N 58°40' E 017°08'0 0.0
2018-Aug-04 15:19N 58°40' E 017°08'1 3.0
2018-Aug-04 15:00N 58°41' E 017°10'4 8.5
2018-Aug-04 14:30N 58°40' E 017°18'510.4
2018-Aug-04 14:00N 58°37' E 017°27'5 9.8
2018-Aug-04 13:30N 58°34' E 017°34'100 8.6
2018-Aug-04 01:58N 59°55' E 019°27'511.0
2018-Aug-04 01:30N 59°59' E 019°20'611.1
2018-Aug-04 01:00N 60°03' E 019°13'611.2
2018-Aug-04 00:30N 60°08' E 019°06'510.6
2018-Aug-04 00:00N 60°12' E 019°01'611.0
2018-Aug-03 23:30N 60°18' E 019°00'510.9
2018-Aug-03 23:00N 60°23' E 018°60'  

Dump ship's entire track history